sensor_id;sensor_type;location;lat;lon;timestamp;pressure;altitude;pressure_sealevel;temperature;humidity
65997;BME280;52765;52.258;21.052;2024-02-04T00:01:35;99982.28;;;6.18;100.00
65997;BME280;52765;52.258;21.052;2024-02-04T00:06:01;99982.81;;;6.12;100.00
65997;BME280;52765;52.258;21.052;2024-02-04T00:10:26;99985.22;;;6.15;98.85
65997;BME280;52765;52.258;21.052;2024-02-04T00:14:52;99979.03;;;6.15;98.60
65997;BME280;52765;52.258;21.052;2024-02-04T00:19:18;99981.84;;;6.13;98.28
65997;BME280;52765;52.258;21.052;2024-02-04T00:23:43;99973.41;;;6.08;99.10
65997;BME280;52765;52.258;21.052;2024-02-04T00:28:08;99965.91;;;6.02;99.81
65997;BME280;52765;52.258;21.052;2024-02-04T00:32:36;99975.03;;;5.99;100.00
65997;BME280;52765;52.258;21.052;2024-02-04T00:37:02;99936.16;;;5.95;100.00
65997;BME280;52765;52.258;21.052;2024-02-04T00:41:27;99944.47;;;5.92;100.00
65997;BME280;52765;52.258;21.052;2024-02-04T00:45:54;99973.16;;;5.90;100.00
65997;BME280;52765;52.258;21.052;2024-02-04T00:50:21;99968.09;;;5.87;100.00
65997;BME280;52765;52.258;21.052;2024-02-04T00:54:47;99946.69;;;5.87;100.00
65997;BME280;52765;52.258;21.052;2024-02-04T00:59:12;99967.25;;;5.86;100.00
65997;BME280;52765;52.258;21.052;2024-02-04T01:03:38;99969.06;;;5.86;100.00
65997;BME280;52765;52.258;21.052;2024-02-04T01:08:03;99965.94;;;5.81;100.00
65997;BME280;52765;52.258;21.052;2024-02-04T01:12:29;99977.63;;;5.80;100.00
65997;BME280;52765;52.258;21.052;2024-02-04T01:16:54;99970.84;;;5.75;100.00
65997;BME280;52765;52.258;21.052;2024-02-04T01:21:20;99969.03;;;5.76;100.00
65997;BME280;52765;52.258;21.052;2024-02-04T01:25:45;99968.72;;;5.69;100.00
65997;BME280;52765;52.258;21.052;2024-02-04T01:30:11;99982.06;;;5.69;100.00
65997;BME280;52765;52.258;21.052;2024-02-04T01:34:36;99966.03;;;5.69;100.00
65997;BME280;52765;52.258;21.052;2024-02-04T01:39:02;99973.34;;;5.67;100.00
65997;BME280;52765;52.258;21.052;2024-02-04T01:43:28;99976.03;;;5.67;100.00
65997;BME280;52765;52.258;21.052;2024-02-04T01:47:53;99967.63;;;5.72;100.00
65997;BME280;52765;52.258;21.052;2024-02-04T01:52:19;99968.19;;;5.75;100.00
65997;BME280;52765;52.258;21.052;2024-02-04T01:56:49;99947.81;;;5.74;100.00
65997;BME280;52765;52.258;21.052;2024-02-04T02:01:15;99943.44;;;5.73;100.00
65997;BME280;52765;52.258;21.052;2024-02-04T02:05:41;99947.81;;;5.74;100.00
65997;BME280;52765;52.258;21.052;2024-02-04T02:10:07;99949.34;;;5.77;100.00
65997;BME280;52765;52.258;21.052;2024-02-04T02:14:38;99958.31;;;5.76;100.00
65997;BME280;52765;52.258;21.052;2024-02-04T02:28:27;99956.78;;;5.73;100.00
65997;BME280;52765;52.258;21.052;2024-02-04T02:32:53;99943.44;;;5.73;100.00
65997;BME280;52765;52.258;21.052;2024-02-04T02:37:23;99935.97;;;5.77;100.00
65997;BME280;52765;52.258;21.052;2024-02-04T02:41:55;99941.63;;;5.84;100.00
65997;BME280;52765;52.258;21.052;2024-02-04T02:46:23;99953.00;;;5.86;100.00
65997;BME280;52765;52.258;21.052;2024-02-04T02:50:49;99952.59;;;5.81;100.00
65997;BME280;52765;52.258;21.052;2024-02-04T02:55:14;99950.34;;;5.86;100.00
65997;BME280;52765;52.258;21.052;2024-02-04T02:59:40;99941.63;;;5.84;100.00
65997;BME280;52765;52.258;21.052;2024-02-04T03:04:09;99939.53;;;5.87;100.00
65997;BME280;52765;52.258;21.052;2024-02-04T03:08:35;99938.16;;;5.93;100.00
65997;BME280;52765;52.258;21.052;2024-02-04T03:13:00;99940.16;;;6.01;100.00
65997;BME280;52765;52.258;21.052;2024-02-04T03:17:30;99938.03;;;6.04;100.00
65997;BME280;52765;52.258;21.052;2024-02-04T03:22:00;99933.56;;;6.05;100.00
65997;BME280;52765;52.258;21.052;2024-02-04T03:26:26;99933.13;;;6.09;100.00
65997;BME280;52765;52.258;21.052;2024-02-04T03:30:51;99940.16;;;6.10;100.00
65997;BME280;52765;52.258;21.052;2024-02-04T03:35:17;99949.88;;;6.11;100.00
65997;BME280;52765;52.258;21.052;2024-02-04T03:39:42;99942.84;;;6.10;99.28
65997;BME280;52765;52.258;21.052;2024-02-04T03:44:08;99949.03;;;6.01;98.34
65997;BME280;52765;52.258;21.052;2024-02-04T03:48:33;99958.78;;;5.91;97.58
65997;BME280;52765;52.258;21.052;2024-02-04T03:53:00;99961.81;;;5.98;96.88
65997;BME280;52765;52.258;21.052;2024-02-04T03:57:26;99980.06;;;5.92;95.53
65997;BME280;52765;52.258;21.052;2024-02-04T04:01:52;99987.38;;;5.90;94.84
65997;BME280;52765;52.258;21.052;2024-02-04T04:06:19;99965.84;;;5.92;94.18
65997;BME280;52765;52.258;21.052;2024-02-04T04:10:45;99980.91;;;5.93;93.42
65997;BME280;52765;52.258;21.052;2024-02-04T04:15:11;99980.50;;;5.88;94.04
65997;BME280;52765;52.258;21.052;2024-02-04T04:19:36;99981.19;;;5.90;94.21
65997;BME280;52765;52.258;21.052;2024-02-04T04:24:02;99979.03;;;5.84;94.06
65997;BME280;52765;52.258;21.052;2024-02-04T04:28:27;99979.47;;;5.89;95.13
65997;BME280;52765;52.258;21.052;2024-02-04T04:32:53;99975.84;;;5.90;95.35
65997;BME280;52765;52.258;21.052;2024-02-04T04:37:18;99995.25;;;5.92;95.18
65997;BME280;52765;52.258;21.052;2024-02-04T04:41:44;99996.06;;;5.83;94.87
65997;BME280;52765;52.258;21.052;2024-02-04T04:46:10;99985.75;;;5.68;92.81
65997;BME280;52765;52.258;21.052;2024-02-04T04:50:35;100002.34;;;5.72;92.20
65997;BME280;52765;52.258;21.052;2024-02-04T04:55:01;99986.00;;;5.65;90.78
65997;BME280;52765;52.258;21.052;2024-02-04T04:59:27;100005.63;;;5.45;91.31
65997;BME280;52765;52.258;21.052;2024-02-04T05:03:53;99993.16;;;5.34;91.81
65997;BME280;52765;52.258;21.052;2024-02-04T05:08:18;99999.19;;;5.26;92.94
65997;BME280;52765;52.258;21.052;2024-02-04T05:12:44;100005.63;;;5.24;95.25
65997;BME280;52765;52.258;21.052;2024-02-04T05:17:09;100017.53;;;5.19;96.02
65997;BME280;52765;52.258;21.052;2024-02-04T05:21:39;100020.06;;;5.21;96.35
65997;BME280;52765;52.258;21.052;2024-02-04T05:26:08;100020.78;;;5.02;95.63
65997;BME280;52765;52.258;21.052;2024-02-04T05:30:33;100015.50;;;4.91;93.81
65997;BME280;52765;52.258;21.052;2024-02-04T05:34:59;100019.28;;;4.88;92.83
65997;BME280;52765;52.258;21.052;2024-02-04T05:39:24;100019.09;;;4.80;92.95
65997;BME280;52765;52.258;21.052;2024-02-04T05:43:50;100031.69;;;4.78;93.09
65997;BME280;52765;52.258;21.052;2024-02-04T05:48:15;100038.28;;;4.62;94.65
65997;BME280;52765;52.258;21.052;2024-02-04T05:52:41;100023.41;;;4.60;95.00
65997;BME280;52765;52.258;21.052;2024-02-04T05:57:06;100011.34;;;4.66;95.13
65997;BME280;52765;52.258;21.052;2024-02-04T06:01:32;100006.25;;;4.74;95.12
65997;BME280;52765;52.258;21.052;2024-02-04T06:05:58;99998.09;;;4.75;95.79
65997;BME280;52765;52.258;21.052;2024-02-04T06:10:23;99984.38;;;4.80;96.33
65997;BME280;52765;52.258;21.052;2024-02-04T06:14:49;99982.75;;;4.89;95.50
65997;BME280;52765;52.258;21.052;2024-02-04T06:19:14;99998.66;;;4.90;94.83
65997;BME280;52765;52.258;21.052;2024-02-04T06:23:40;100006.53;;;4.92;95.39
65997;BME280;52765;52.258;21.052;2024-02-04T06:28:05;99989.38;;;4.94;95.36
65997;BME280;52765;52.258;21.052;2024-02-04T06:32:32;99984.78;;;4.96;95.18
65997;BME280;52765;52.258;21.052;2024-02-04T06:36:57;99985.75;;;4.95;95.59
65997;BME280;52765;52.258;21.052;2024-02-04T06:41:22;99999.69;;;4.99;95.93
65997;BME280;52765;52.258;21.052;2024-02-04T06:45:48;99987.91;;;5.02;96.49
65997;BME280;52765;52.258;21.052;2024-02-04T06:50:13;99996.44;;;4.95;97.10
65997;BME280;52765;52.258;21.052;2024-02-04T06:54:39;99992.94;;;4.95;98.87
65997;BME280;52765;52.258;21.052;2024-02-04T06:59:05;100003.72;;;4.93;99.92
65997;BME280;52765;52.258;21.052;2024-02-04T07:03:31;100020.13;;;4.89;100.00
65997;BME280;52765;52.258;21.052;2024-02-04T07:07:56;100027.28;;;4.88;100.00
65997;BME280;52765;52.258;21.052;2024-02-04T07:12:22;100026.03;;;4.92;100.00
65997;BME280;52765;52.258;21.052;2024-02-04T07:16:47;100032.56;;;4.99;100.00
65997;BME280;52765;52.258;21.052;2024-02-04T07:21:13;100018.13;;;5.02;100.00
65997;BME280;52765;52.258;21.052;2024-02-04T07:25:38;100009.97;;;5.04;100.00
65997;BME280;52765;52.258;21.052;2024-02-04T07:30:04;100011.53;;;5.06;100.00
65997;BME280;52765;52.258;21.052;2024-02-04T07:34:30;100014.06;;;5.08;100.00
65997;BME280;52765;52.258;21.052;2024-02-04T07:38:55;100009.59;;;5.08;100.00
65997;BME280;52765;52.258;21.052;2024-02-04T07:43:21;100012.59;;;5.15;100.00
65997;BME280;52765;52.258;21.052;2024-02-04T07:47:46;100013.50;;;5.25;100.00
65997;BME280;52765;52.258;21.052;2024-02-04T07:52:12;100023.84;;;5.18;100.00
65997;BME280;52765;52.258;21.052;2024-02-04T07:56:37;100014.66;;;5.32;100.00
65997;BME280;52765;52.258;21.052;2024-02-04T08:01:03;100021.25;;;5.28;99.75
65997;BME280;52765;52.258;21.052;2024-02-04T08:05:29;100021.69;;;5.12;100.00
65997;BME280;52765;52.258;21.052;2024-02-04T08:09:57;100014.81;;;5.10;100.00
65997;BME280;52765;52.258;21.052;2024-02-04T08:14:22;100024.16;;;5.04;100.00
65997;BME280;52765;52.258;21.052;2024-02-04T08:18:47;100023.78;;;5.09;100.00
65997;BME280;52765;52.258;21.052;2024-02-04T08:23:13;100025.16;;;5.03;100.00
65997;BME280;52765;52.258;21.052;2024-02-04T08:27:39;100025.28;;;5.02;100.00
65997;BME280;52765;52.258;21.052;2024-02-04T08:32:04;100015.78;;;5.09;100.00
65997;BME280;52765;52.258;21.052;2024-02-04T08:36:30;100026.72;;;5.06;100.00
65997;BME280;52765;52.258;21.052;2024-02-04T08:40:56;100009.47;;;5.10;100.00
65997;BME280;52765;52.258;21.052;2024-02-04T08:45:21;100015.72;;;5.20;99.82
65997;BME280;52765;52.258;21.052;2024-02-04T08:49:47;100018.00;;;5.25;98.83
65997;BME280;52765;52.258;21.052;2024-02-04T08:54:12;100017.25;;;5.23;98.81
65997;BME280;52765;52.258;21.052;2024-02-04T08:58:37;100023.03;;;5.18;98.17
65997;BME280;52765;52.258;21.052;2024-02-04T09:03:03;100022.28;;;5.16;97.85
65997;BME280;52765;52.258;21.052;2024-02-04T09:07:29;100035.00;;;5.24;97.65
65997;BME280;52765;52.258;21.052;2024-02-04T09:11:55;100043.72;;;5.26;95.98
65997;BME280;52765;52.258;21.052;2024-02-04T09:16:20;100034.28;;;5.22;95.40
65997;BME280;52765;52.258;21.052;2024-02-04T09:20:46;100019.50;;;5.38;94.92
65997;BME280;52765;52.258;21.052;2024-02-04T09:25:12;100009.13;;;5.45;95.29
65997;BME280;52765;52.258;21.052;2024-02-04T09:29:37;100015.81;;;5.61;94.08
65997;BME280;52765;52.258;21.052;2024-02-04T09:34:03;100028.31;;;5.60;93.93
65997;BME280;52765;52.258;21.052;2024-02-04T09:38:29;100029.75;;;5.64;94.08
65997;BME280;52765;52.258;21.052;2024-02-04T09:42:56;100030.88;;;5.62;93.65
65997;BME280;52765;52.258;21.052;2024-02-04T09:47:22;100023.38;;;5.55;94.21
65997;BME280;52765;52.258;21.052;2024-02-04T09:51:48;100020.78;;;5.44;94.89
65997;BME280;52765;52.258;21.052;2024-02-04T09:56:14;100010.34;;;5.41;95.44
65997;BME280;52765;52.258;21.052;2024-02-04T10:00:41;100013.44;;;5.36;95.14
65997;BME280;52765;52.258;21.052;2024-02-04T10:05:09;100001.16;;;5.55;94.77
65997;BME280;52765;52.258;21.052;2024-02-04T10:09:35;99991.22;;;5.67;93.75
65997;BME280;52765;52.258;21.052;2024-02-04T10:14:04;99972.38;;;5.68;93.78
65997;BME280;52765;52.258;21.052;2024-02-04T10:18:31;99967.09;;;5.78;93.68
65997;BME280;52765;52.258;21.052;2024-02-04T10:22:57;99951.47;;;5.83;92.62
65997;BME280;52765;52.258;21.052;2024-02-04T10:27:23;99956.34;;;5.68;93.23
65997;BME280;52765;52.258;21.052;2024-02-04T10:31:48;99958.88;;;5.70;93.81
65997;BME280;52765;52.258;21.052;2024-02-04T10:36:14;99955.09;;;5.72;93.83
65997;BME280;52765;52.258;21.052;2024-02-04T10:40:39;99935.09;;;5.67;94.19
65997;BME280;52765;52.258;21.052;2024-02-04T10:45:07;99929.97;;;5.54;95.12
65997;BME280;52765;52.258;21.052;2024-02-04T10:49:39;99912.59;;;5.60;94.91
65997;BME280;52765;52.258;21.052;2024-02-04T10:54:11;99902.91;;;5.68;94.93
65997;BME280;52765;52.258;21.052;2024-02-04T10:58:39;99891.78;;;5.63;96.65
65997;BME280;52765;52.258;21.052;2024-02-04T11:03:06;99879.25;;;5.64;97.51
65997;BME280;52765;52.258;21.052;2024-02-04T11:07:33;99898.75;;;5.54;98.47
65997;BME280;52765;52.258;21.052;2024-02-04T11:12:02;99897.06;;;5.44;100.00
65997;BME280;52765;52.258;21.052;2024-02-04T11:26:18;99892.53;;;5.44;100.00
65997;BME280;52765;52.258;21.052;2024-02-04T11:30:44;99882.72;;;5.45;100.00
65997;BME280;52765;52.258;21.052;2024-02-04T11:35:11;99875.69;;;5.44;100.00
65997;BME280;52765;52.258;21.052;2024-02-04T11:39:50;99887.38;;;5.52;100.00
65997;BME280;52765;52.258;21.052;2024-02-04T11:44:26;99894.03;;;5.27;100.00
65997;BME280;52765;52.258;21.052;2024-02-04T11:48:54;99892.19;;;5.18;100.00
65997;BME280;52765;52.258;21.052;2024-02-04T11:53:21;99875.53;;;5.14;100.00
65997;BME280;52765;52.258;21.052;2024-02-04T11:57:48;99860.91;;;5.09;100.00
65997;BME280;52765;52.258;21.052;2024-02-04T12:02:17;99858.81;;;5.12;100.00
65997;BME280;52765;52.258;21.052;2024-02-04T12:06:44;99843.19;;;5.08;100.00
65997;BME280;52765;52.258;21.052;2024-02-04T12:11:09;99830.03;;;5.16;100.00
65997;BME280;52765;52.258;21.052;2024-02-04T12:15:35;99834.00;;;5.22;100.00
65997;BME280;52765;52.258;21.052;2024-02-04T12:20:04;99806.31;;;5.32;100.00
65997;BME280;52765;52.258;21.052;2024-02-04T12:24:30;99792.00;;;5.33;100.00
65997;BME280;52765;52.258;21.052;2024-02-04T12:28:56;99798.59;;;5.39;100.00
65997;BME280;52765;52.258;21.052;2024-02-04T12:33:21;99782.88;;;5.46;100.00
65997;BME280;52765;52.258;21.052;2024-02-04T12:37:53;99787.53;;;5.53;100.00
65997;BME280;52765;52.258;21.052;2024-02-04T12:42:19;99784.56;;;5.47;100.00
65997;BME280;52765;52.258;21.052;2024-02-04T12:46:50;99780.91;;;5.48;100.00
65997;BME280;52765;52.258;21.052;2024-02-04T12:51:26;99777.00;;;5.52;100.00
65997;BME280;52765;52.258;21.052;2024-02-04T12:55:58;99770.50;;;5.54;100.00
65997;BME280;52765;52.258;21.052;2024-02-04T13:00:23;99754.06;;;5.49;100.00
65997;BME280;52765;52.258;21.052;2024-02-04T13:04:50;99757.88;;;5.47;100.00
65997;BME280;52765;52.258;21.052;2024-02-04T13:09:16;99754.19;;;5.48;100.00
65997;BME280;52765;52.258;21.052;2024-02-04T13:13:47;99755.06;;;5.48;100.00
65997;BME280;52765;52.258;21.052;2024-02-04T13:18:19;99742.09;;;5.44;100.00
65997;BME280;52765;52.258;21.052;2024-02-04T13:22:44;99735.38;;;5.40;100.00
65997;BME280;52765;52.258;21.052;2024-02-04T13:27:10;99732.09;;;5.36;100.00
65997;BME280;52765;52.258;21.052;2024-02-04T13:31:35;99726.91;;;5.34;100.00
65997;BME280;52765;52.258;21.052;2024-02-04T13:36:00;99734.50;;;5.39;100.00
65997;BME280;52765;52.258;21.052;2024-02-04T13:40:26;99712.84;;;5.42;100.00
65997;BME280;52765;52.258;21.052;2024-02-04T13:44:52;99719.63;;;5.36;100.00
65997;BME280;52765;52.258;21.052;2024-02-04T13:49:17;99708.78;;;5.48;100.00
65997;BME280;52765;52.258;21.052;2024-02-04T13:53:42;99703.00;;;5.43;100.00
65997;BME280;52765;52.258;21.052;2024-02-04T13:58:08;99707.53;;;5.42;100.00
65997;BME280;52765;52.258;21.052;2024-02-04T14:02:34;99692.19;;;5.44;100.00
65997;BME280;52765;52.258;21.052;2024-02-04T14:06:59;99681.38;;;5.46;100.00
65997;BME280;52765;52.258;21.052;2024-02-04T14:11:25;99690.06;;;5.48;100.00
65997;BME280;52765;52.258;21.052;2024-02-04T14:15:52;99708.06;;;5.46;100.00
65997;BME280;52765;52.258;21.052;2024-02-04T14:20:17;99681.38;;;5.46;100.00
65997;BME280;52765;52.258;21.052;2024-02-04T14:24:43;99691.78;;;5.49;100.00
65997;BME280;52765;52.258;21.052;2024-02-04T14:29:10;99685.19;;;5.53;100.00
65997;BME280;52765;52.258;21.052;2024-02-04T14:33:36;99675.47;;;5.52;100.00
65997;BME280;52765;52.258;21.052;2024-02-04T14:38:03;99666.59;;;5.61;100.00
65997;BME280;52765;52.258;21.052;2024-02-04T14:42:28;99653.94;;;5.63;100.00
65997;BME280;52765;52.258;21.052;2024-02-04T14:46:59;99643.69;;;5.68;100.00
65997;BME280;52765;52.258;21.052;2024-02-04T14:51:25;99627.09;;;5.65;100.00
65997;BME280;52765;52.258;21.052;2024-02-04T14:55:51;99622.88;;;5.62;100.00
65997;BME280;52765;52.258;21.052;2024-02-04T15:00:17;99627.94;;;5.65;100.00
65997;BME280;52765;52.258;21.052;2024-02-04T15:04:43;99631.28;;;5.67;100.00
65997;BME280;52765;52.258;21.052;2024-02-04T15:09:08;99612.03;;;5.73;100.00
65997;BME280;52765;52.258;21.052;2024-02-04T15:13:35;99610.47;;;5.71;100.00
65997;BME280;52765;52.258;21.052;2024-02-04T15:18:01;99618.75;;;5.78;100.00
65997;BME280;52765;52.258;21.052;2024-02-04T15:22:26;99613.53;;;5.76;100.00
65997;BME280;52765;52.258;21.052;2024-02-04T15:26:52;99611.03;;;5.74;100.00
65997;BME280;52765;52.258;21.052;2024-02-04T15:31:18;99594.16;;;5.74;100.00
65997;BME280;52765;52.258;21.052;2024-02-04T15:35:44;99582.34;;;5.67;100.00
65997;BME280;52765;52.258;21.052;2024-02-04T15:40:09;99589.81;;;5.73;100.00
65997;BME280;52765;52.258;21.052;2024-02-04T15:44:36;99603.31;;;5.71;100.00
65997;BME280;52765;52.258;21.052;2024-02-04T15:49:02;99586.69;;;5.68;100.00
65997;BME280;52765;52.258;21.052;2024-02-04T15:53:29;99593.31;;;5.73;100.00
65997;BME280;52765;52.258;21.052;2024-02-04T15:57:56;99569.66;;;5.79;100.00
65997;BME280;52765;52.258;21.052;2024-02-04T16:02:24;99570.22;;;5.72;100.00
65997;BME280;52765;52.258;21.052;2024-02-04T16:06:52;99574.19;;;5.78;100.00
65997;BME280;52765;52.258;21.052;2024-02-04T16:11:20;99575.97;;;5.78;100.00
65997;BME280;52765;52.258;21.052;2024-02-04T16:15:50;99582.47;;;5.75;100.00
65997;BME280;52765;52.258;21.052;2024-02-04T16:20:17;99575.84;;;5.79;100.00
65997;BME280;52765;52.258;21.052;2024-02-04T16:24:45;99569.09;;;5.85;100.00
65997;BME280;52765;52.258;21.052;2024-02-04T16:29:10;99567.53;;;5.82;100.00
65997;BME280;52765;52.258;21.052;2024-02-04T16:33:36;99553.34;;;5.82;100.00
65997;BME280;52765;52.258;21.052;2024-02-04T16:38:01;99564.88;;;5.82;100.00
65997;BME280;52765;52.258;21.052;2024-02-04T16:42:30;99554.03;;;5.84;100.00
65997;BME280;52765;52.258;21.052;2024-02-04T16:47:00;99561.78;;;5.77;100.00
65997;BME280;52765;52.258;21.052;2024-02-04T16:51:26;99544.06;;;5.76;100.00
65997;BME280;52765;52.258;21.052;2024-02-04T16:55:52;99553.63;;;5.79;100.00
65997;BME280;52765;52.258;21.052;2024-02-04T17:00:18;99550.66;;;5.82;100.00
65997;BME280;52765;52.258;21.052;2024-02-04T17:04:45;99545.47;;;5.80;100.00
65997;BME280;52765;52.258;21.052;2024-02-04T17:09:14;99531.41;;;5.78;100.00
65997;BME280;52765;52.258;21.052;2024-02-04T17:13:40;99542.38;;;5.85;100.00
65997;BME280;52765;52.258;21.052;2024-02-04T17:18:08;99518.31;;;5.85;100.00
65997;BME280;52765;52.258;21.052;2024-02-04T17:22:35;99542.38;;;5.85;100.00
65997;BME280;52765;52.258;21.052;2024-02-04T17:27:05;99524.78;;;5.82;100.00
65997;BME280;52765;52.258;21.052;2024-02-04T17:31:31;99520.69;;;5.88;100.00
65997;BME280;52765;52.258;21.052;2024-02-04T17:35:56;99504.28;;;5.73;100.00
65997;BME280;52765;52.258;21.052;2024-02-04T17:40:22;99526.34;;;5.75;100.00
65997;BME280;52765;52.258;21.052;2024-02-04T17:44:48;99520.72;;;5.78;99.77
65997;BME280;52765;52.258;21.052;2024-02-04T17:49:15;99484.97;;;5.79;99.86
65997;BME280;52765;52.258;21.052;2024-02-04T17:53:40;99506.22;;;5.81;99.92
65997;BME280;52765;52.258;21.052;2024-02-04T17:58:08;99502.56;;;5.82;99.79
65997;BME280;52765;52.258;21.052;2024-02-04T18:02:33;99496.78;;;5.86;99.59
65997;BME280;52765;52.258;21.052;2024-02-04T18:07:01;99490.56;;;5.86;99.76
65997;BME280;52765;52.258;21.052;2024-02-04T18:11:26;99488.91;;;5.85;100.00
65997;BME280;52765;52.258;21.052;2024-02-04T18:15:52;99496.94;;;5.85;99.70
65997;BME280;52765;52.258;21.052;2024-02-04T18:20:19;99480.75;;;5.86;99.50
65997;BME280;52765;52.258;21.052;2024-02-04T18:24:44;99476.81;;;5.81;99.19
65997;BME280;52765;52.258;21.052;2024-02-04T18:29:10;99490.41;;;5.87;99.01
65997;BME280;52765;52.258;21.052;2024-02-04T18:33:36;99479.88;;;5.86;98.73
65997;BME280;52765;52.258;21.052;2024-02-04T18:38:01;99476.09;;;5.88;98.65
65997;BME280;52765;52.258;21.052;2024-02-04T18:42:27;99478.47;;;5.91;97.97
65997;BME280;52765;52.258;21.052;2024-02-04T18:46:52;99467.63;;;5.93;97.67
65997;BME280;52765;52.258;21.052;2024-02-04T18:51:18;99456.06;;;5.92;97.31
65997;BME280;52765;52.258;21.052;2024-02-04T18:55:43;99469.03;;;5.87;97.45
65997;BME280;52765;52.258;21.052;2024-02-04T19:00:10;99479.19;;;5.84;97.61
65997;BME280;52765;52.258;21.052;2024-02-04T19:04:36;99454.44;;;5.82;97.44
65997;BME280;52765;52.258;21.052;2024-02-04T19:09:05;99471.16;;;5.84;97.70
65997;BME280;52765;52.258;21.052;2024-02-04T19:13:32;99449.25;;;5.80;97.48
65997;BME280;52765;52.258;21.052;2024-02-04T19:17:58;99448.41;;;5.80;97.70
65997;BME280;52765;52.258;21.052;2024-02-04T19:22:23;99440.84;;;5.75;97.81
65997;BME280;52765;52.258;21.052;2024-02-04T19:26:56;99461.22;;;5.76;98.13
65997;BME280;52765;52.258;21.052;2024-02-04T19:31:21;99464.88;;;5.75;98.41
65997;BME280;52765;52.258;21.052;2024-02-04T19:35:47;99443.50;;;5.75;98.26
65997;BME280;52765;52.258;21.052;2024-02-04T19:40:13;99457.81;;;5.84;97.91
65997;BME280;52765;52.258;21.052;2024-02-04T19:44:39;99466.13;;;5.81;98.48
65997;BME280;52765;52.258;21.052;2024-02-04T19:49:04;99451.78;;;5.82;97.89
65997;BME280;52765;52.258;21.052;2024-02-04T19:53:30;99448.41;;;5.80;98.14
65997;BME280;52765;52.258;21.052;2024-02-04T19:57:55;99448.53;;;5.88;98.04
65997;BME280;52765;52.258;21.052;2024-02-04T20:02:21;99448.66;;;5.86;98.01
65997;BME280;52765;52.258;21.052;2024-02-04T20:06:47;99440.06;;;5.83;98.88
65997;BME280;52765;52.258;21.052;2024-02-04T20:11:13;99430.25;;;5.83;98.29
65997;BME280;52765;52.258;21.052;2024-02-04T20:15:42;99425.88;;;5.82;98.30
65997;BME280;52765;52.258;21.052;2024-02-04T20:20:10;99426.72;;;5.83;99.23
65997;BME280;52765;52.258;21.052;2024-02-04T20:24:36;99434.03;;;5.81;100.00
65997;BME280;52765;52.258;21.052;2024-02-04T20:29:05;99416.09;;;5.73;100.00
65997;BME280;52765;52.258;21.052;2024-02-04T20:33:31;99432.97;;;5.73;100.00
65997;BME280;52765;52.258;21.052;2024-02-04T20:37:59;99445.16;;;5.76;100.00
65997;BME280;52765;52.258;21.052;2024-02-04T20:42:26;99422.72;;;5.69;100.00
65997;BME280;52765;52.258;21.052;2024-02-04T20:46:52;99416.53;;;5.68;100.00
65997;BME280;52765;52.258;21.052;2024-02-04T20:51:18;99430.34;;;5.64;100.00
65997;BME280;52765;52.258;21.052;2024-02-04T20:55:44;99415.38;;;5.71;100.00
65997;BME280;52765;52.258;21.052;2024-02-04T21:00:12;99427.78;;;5.72;100.00
65997;BME280;52765;52.258;21.052;2024-02-04T21:04:40;99399.75;;;5.76;100.00
65997;BME280;52765;52.258;21.052;2024-02-04T21:09:07;99407.16;;;5.82;100.00
65997;BME280;52765;52.258;21.052;2024-02-04T21:13:34;99400.84;;;5.83;100.00
65997;BME280;52765;52.258;21.052;2024-02-04T21:18:00;99411.84;;;5.80;100.00
65997;BME280;52765;52.258;21.052;2024-02-04T21:22:26;99392.16;;;5.81;100.00
65997;BME280;52765;52.258;21.052;2024-02-04T21:26:51;99392.44;;;5.78;100.00
65997;BME280;52765;52.258;21.052;2024-02-04T21:31:17;99390.75;;;5.77;100.00
65997;BME280;52765;52.258;21.052;2024-02-04T21:35:42;99368.81;;;5.73;100.00
65997;BME280;52765;52.258;21.052;2024-02-04T21:40:08;99365.63;;;5.70;100.00
65997;BME280;52765;52.258;21.052;2024-02-04T21:44:34;99359.13;;;5.72;100.00
65997;BME280;52765;52.258;21.052;2024-02-04T21:49:00;99355.63;;;5.72;100.00
65997;BME280;52765;52.258;21.052;2024-02-04T21:53:25;99348.81;;;5.78;100.00
65997;BME280;52765;52.258;21.052;2024-02-04T21:57:51;99342.94;;;5.74;100.00
65997;BME280;52765;52.258;21.052;2024-02-04T22:02:17;99330.44;;;5.74;100.00
65997;BME280;52765;52.258;21.052;2024-02-04T22:06:42;99337.81;;;5.81;100.00
65997;BME280;52765;52.258;21.052;2024-02-04T22:11:08;99344.09;;;5.71;100.00
65997;BME280;52765;52.258;21.052;2024-02-04T22:15:34;99342.63;;;5.77;100.00
65997;BME280;52765;52.258;21.052;2024-02-04T22:20:00;99335.00;;;5.82;100.00
65997;BME280;52765;52.258;21.052;2024-02-04T22:24:25;99320.97;;;5.80;100.00
65997;BME280;52765;52.258;21.052;2024-02-04T22:28:51;99340.50;;;5.81;100.00
65997;BME280;52765;52.258;21.052;2024-02-04T22:33:16;99321.94;;;5.79;100.00
65997;BME280;52765;52.258;21.052;2024-02-04T22:37:42;99329.81;;;5.81;100.00
65997;BME280;52765;52.258;21.052;2024-02-04T22:42:07;99325.56;;;5.88;100.00
65997;BME280;52765;52.258;21.052;2024-02-04T22:46:36;99329.22;;;5.87;100.00
65997;BME280;52765;52.258;21.052;2024-02-04T22:51:02;99324.47;;;5.81;100.00
65997;BME280;52765;52.258;21.052;2024-02-04T22:55:27;99327.50;;;5.68;100.00
65997;BME280;52765;52.258;21.052;2024-02-04T22:59:53;99329.53;;;5.56;100.00
65997;BME280;52765;52.258;21.052;2024-02-04T23:04:18;99320.84;;;5.54;100.00
65997;BME280;52765;52.258;21.052;2024-02-04T23:08:45;99320.88;;;5.44;100.00
65997;BME280;52765;52.258;21.052;2024-02-04T23:13:10;99309.09;;;5.47;100.00
65997;BME280;52765;52.258;21.052;2024-02-04T23:17:36;99312.06;;;5.44;100.00
65997;BME280;52765;52.258;21.052;2024-02-04T23:22:01;99305.25;;;5.31;100.00
65997;BME280;52765;52.258;21.052;2024-02-04T23:26:27;99306.50;;;5.27;100.00
65997;BME280;52765;52.258;21.052;2024-02-04T23:30:52;99302.88;;;5.28;100.00
65997;BME280;52765;52.258;21.052;2024-02-04T23:35:18;99293.16;;;5.27;100.00